sensor_id;sensor_type;location;lat;lon;timestamp;P1;durP1;ratioP1;P2;durP2;ratioP2
39102;SDS011;24847;48.218;16.414;2023-08-12T00:01:39;2.80;;;2.10;;
39102;SDS011;24847;48.218;16.414;2023-08-12T00:06:42;1.95;;;1.77;;
39102;SDS011;24847;48.218;16.414;2023-08-12T00:11:46;3.03;;;1.70;;
39102;SDS011;24847;48.218;16.414;2023-08-12T00:16:48;2.28;;;1.90;;
39102;SDS011;24847;48.218;16.414;2023-08-12T00:21:50;2.05;;;1.73;;
39102;SDS011;24847;48.218;16.414;2023-08-12T00:26:54;2.00;;;1.75;;
39102;SDS011;24847;48.218;16.414;2023-08-12T00:31:56;2.40;;;1.88;;
39102;SDS011;24847;48.218;16.414;2023-08-12T00:36:59;2.83;;;2.00;;
39102;SDS011;24847;48.218;16.414;2023-08-12T00:42:03;2.22;;;2.03;;
39102;SDS011;24847;48.218;16.414;2023-08-12T00:47:06;2.50;;;2.13;;
39102;SDS011;24847;48.218;16.414;2023-08-12T00:52:08;2.40;;;2.20;;
39102;SDS011;24847;48.218;16.414;2023-08-12T00:57:12;2.28;;;2.08;;
39102;SDS011;24847;48.218;16.414;2023-08-12T01:02:15;4.05;;;2.55;;
39102;SDS011;24847;48.218;16.414;2023-08-12T01:07:17;2.65;;;2.28;;
39102;SDS011;24847;48.218;16.414;2023-08-12T01:12:23;2.60;;;2.30;;
39102;SDS011;24847;48.218;16.414;2023-08-12T01:17:30;3.03;;;2.47;;
39102;SDS011;24847;48.218;16.414;2023-08-12T01:22:36;2.90;;;2.35;;
39102;SDS011;24847;48.218;16.414;2023-08-12T01:27:42;4.70;;;2.53;;
39102;SDS011;24847;48.218;16.414;2023-08-12T01:32:45;4.50;;;2.70;;
39102;SDS011;24847;48.218;16.414;2023-08-12T01:37:56;2.92;;;2.42;;
39102;SDS011;24847;48.218;16.414;2023-08-12T01:43:02;3.53;;;2.33;;
39102;SDS011;24847;48.218;16.414;2023-08-12T01:48:07;3.63;;;2.30;;
39102;SDS011;24847;48.218;16.414;2023-08-12T01:53:09;3.03;;;2.40;;
39102;SDS011;24847;48.218;16.414;2023-08-12T01:58:13;2.92;;;2.63;;
39102;SDS011;24847;48.218;16.414;2023-08-12T02:03:15;3.40;;;2.40;;
39102;SDS011;24847;48.218;16.414;2023-08-12T02:08:17;2.58;;;2.38;;
39102;SDS011;24847;48.218;16.414;2023-08-12T02:13:21;2.72;;;2.22;;
39102;SDS011;24847;48.218;16.414;2023-08-12T02:18:25;2.38;;;2.17;;
39102;SDS011;24847;48.218;16.414;2023-08-12T02:23:27;1.95;;;1.77;;
39102;SDS011;24847;48.218;16.414;2023-08-12T02:28:30;2.80;;;1.80;;
39102;SDS011;24847;48.218;16.414;2023-08-12T02:33:33;2.45;;;1.70;;
39102;SDS011;24847;48.218;16.414;2023-08-12T02:38:35;2.50;;;1.67;;
39102;SDS011;24847;48.218;16.414;2023-08-12T02:43:38;1.90;;;1.70;;
39102;SDS011;24847;48.218;16.414;2023-08-12T02:48:41;2.15;;;1.95;;
39102;SDS011;24847;48.218;16.414;2023-08-12T02:53:43;3.65;;;2.13;;
39102;SDS011;24847;48.218;16.414;2023-08-12T02:58:47;2.15;;;1.80;;
39102;SDS011;24847;48.218;16.414;2023-08-12T03:03:49;2.65;;;2.13;;
39102;SDS011;24847;48.218;16.414;2023-08-12T03:08:51;3.40;;;2.08;;
39102;SDS011;24847;48.218;16.414;2023-08-12T03:13:55;2.88;;;2.15;;
39102;SDS011;24847;48.218;16.414;2023-08-12T03:18:58;2.40;;;2.20;;
39102;SDS011;24847;48.218;16.414;2023-08-12T03:24:00;2.35;;;2.10;;
39102;SDS011;24847;48.218;16.414;2023-08-12T03:29:04;2.80;;;2.10;;
39102;SDS011;24847;48.218;16.414;2023-08-12T03:34:06;2.60;;;2.38;;
39102;SDS011;24847;48.218;16.414;2023-08-12T03:39:08;2.67;;;2.35;;
39102;SDS011;24847;48.218;16.414;2023-08-12T03:44:11;3.45;;;2.60;;
39102;SDS011;24847;48.218;16.414;2023-08-12T03:49:14;2.97;;;2.45;;
39102;SDS011;24847;48.218;16.414;2023-08-12T03:54:16;2.90;;;2.60;;
39102;SDS011;24847;48.218;16.414;2023-08-12T03:59:20;2.50;;;2.30;;
39102;SDS011;24847;48.218;16.414;2023-08-12T04:04:23;2.60;;;2.33;;
39102;SDS011;24847;48.218;16.414;2023-08-12T04:09:26;2.80;;;2.60;;
39102;SDS011;24847;48.218;16.414;2023-08-12T04:14:29;3.22;;;2.55;;
39102;SDS011;24847;48.218;16.414;2023-08-12T04:19:31;3.42;;;2.30;;
39102;SDS011;24847;48.218;16.414;2023-08-12T04:24:34;3.92;;;2.80;;
39102;SDS011;24847;48.218;16.414;2023-08-12T04:29:37;2.63;;;2.40;;
39102;SDS011;24847;48.218;16.414;2023-08-12T04:34:40;2.10;;;1.90;;
39102;SDS011;24847;48.218;16.414;2023-08-12T04:39:42;1.95;;;1.77;;
39102;SDS011;24847;48.218;16.414;2023-08-12T04:44:46;1.80;;;1.70;;
39102;SDS011;24847;48.218;16.414;2023-08-12T04:49:48;2.20;;;2.00;;
39102;SDS011;24847;48.218;16.414;2023-08-12T04:54:52;2.70;;;2.28;;
39102;SDS011;24847;48.218;16.414;2023-08-12T04:59:56;3.65;;;2.30;;
39102;SDS011;24847;48.218;16.414;2023-08-12T05:04:58;2.40;;;2.17;;
39102;SDS011;24847;48.218;16.414;2023-08-12T05:10:01;3.30;;;2.58;;
39102;SDS011;24847;48.218;16.414;2023-08-12T05:15:07;3.90;;;2.95;;
39102;SDS011;24847;48.218;16.414;2023-08-12T05:20:10;2.92;;;2.72;;
39102;SDS011;24847;48.218;16.414;2023-08-12T05:25:12;3.05;;;2.72;;
39102;SDS011;24847;48.218;16.414;2023-08-12T05:30:16;3.17;;;2.88;;
39102;SDS011;24847;48.218;16.414;2023-08-12T05:35:18;3.50;;;2.80;;
39102;SDS011;24847;48.218;16.414;2023-08-12T05:40:20;3.50;;;3.20;;
39102;SDS011;24847;48.218;16.414;2023-08-12T05:45:24;3.88;;;3.42;;
39102;SDS011;24847;48.218;16.414;2023-08-12T05:50:26;3.78;;;3.45;;
39102;SDS011;24847;48.218;16.414;2023-08-12T05:55:29;3.42;;;3.17;;
39102;SDS011;24847;48.218;16.414;2023-08-12T06:00:33;4.85;;;3.05;;
39102;SDS011;24847;48.218;16.414;2023-08-12T06:05:35;3.80;;;3.50;;
39102;SDS011;24847;48.218;16.414;2023-08-12T06:10:37;3.78;;;3.20;;
39102;SDS011;24847;48.218;16.414;2023-08-12T06:15:41;3.15;;;2.95;;
39102;SDS011;24847;48.218;16.414;2023-08-12T06:20:43;3.63;;;3.33;;
39102;SDS011;24847;48.218;16.414;2023-08-12T06:25:45;3.75;;;3.28;;
39102;SDS011;24847;48.218;16.414;2023-08-12T06:30:49;5.65;;;3.83;;
39102;SDS011;24847;48.218;16.414;2023-08-12T06:35:51;3.80;;;3.45;;
39102;SDS011;24847;48.218;16.414;2023-08-12T06:40:54;6.07;;;4.35;;
39102;SDS011;24847;48.218;16.414;2023-08-12T06:45:58;4.35;;;3.58;;
39102;SDS011;24847;48.218;16.414;2023-08-12T06:51:00;4.68;;;3.35;;
39102;SDS011;24847;48.218;16.414;2023-08-12T06:56:07;3.42;;;3.13;;
39102;SDS011;24847;48.218;16.414;2023-08-12T07:01:10;4.20;;;3.33;;
39102;SDS011;24847;48.218;16.414;2023-08-12T07:06:12;3.40;;;3.10;;
39102;SDS011;24847;48.218;16.414;2023-08-12T07:11:16;2.42;;;2.22;;
39102;SDS011;24847;48.218;16.414;2023-08-12T07:16:19;2.88;;;2.67;;
39102;SDS011;24847;48.218;16.414;2023-08-12T07:21:22;3.00;;;2.75;;
39102;SDS011;24847;48.218;16.414;2023-08-12T07:26:24;3.53;;;2.53;;
39102;SDS011;24847;48.218;16.414;2023-08-12T07:31:28;3.10;;;2.80;;
39102;SDS011;24847;48.218;16.414;2023-08-12T07:36:31;2.53;;;2.33;;
39102;SDS011;24847;48.218;16.414;2023-08-12T07:41:34;2.55;;;2.17;;
39102;SDS011;24847;48.218;16.414;2023-08-12T07:46:37;4.85;;;2.10;;
39102;SDS011;24847;48.218;16.414;2023-08-12T07:51:39;2.63;;;2.17;;
39102;SDS011;24847;48.218;16.414;2023-08-12T07:56:42;4.40;;;2.25;;
39102;SDS011;24847;48.218;16.414;2023-08-12T08:01:45;3.08;;;2.22;;
39102;SDS011;24847;48.218;16.414;2023-08-12T08:06:48;2.28;;;2.08;;
39102;SDS011;24847;48.218;16.414;2023-08-12T08:11:50;2.22;;;2.03;;
39102;SDS011;24847;48.218;16.414;2023-08-12T08:16:54;2.88;;;2.20;;
39102;SDS011;24847;48.218;16.414;2023-08-12T08:21:56;1.98;;;1.85;;
39102;SDS011;24847;48.218;16.414;2023-08-12T08:26:59;2.92;;;1.90;;
39102;SDS011;24847;48.218;16.414;2023-08-12T08:32:02;2.85;;;1.90;;
39102;SDS011;24847;48.218;16.414;2023-08-12T08:37:05;3.75;;;3.45;;
39102;SDS011;24847;48.218;16.414;2023-08-12T08:42:07;3.80;;;2.53;;
39102;SDS011;24847;48.218;16.414;2023-08-12T08:47:14;2.67;;;2.10;;
39102;SDS011;24847;48.218;16.414;2023-08-12T08:52:21;3.10;;;2.63;;
39102;SDS011;24847;48.218;16.414;2023-08-12T08:57:25;3.28;;;2.58;;
39102;SDS011;24847;48.218;16.414;2023-08-12T09:02:29;3.63;;;2.20;;
39102;SDS011;24847;48.218;16.414;2023-08-12T09:07:32;3.72;;;2.10;;
39102;SDS011;24847;48.218;16.414;2023-08-12T09:12:36;4.00;;;2.58;;
39102;SDS011;24847;48.218;16.414;2023-08-12T09:17:40;1.92;;;1.80;;
39102;SDS011;24847;48.218;16.414;2023-08-12T09:22:42;3.22;;;2.15;;
39102;SDS011;24847;48.218;16.414;2023-08-12T09:27:45;2.55;;;1.92;;
39102;SDS011;24847;48.218;16.414;2023-08-12T09:38:09;3.33;;;2.17;;
39102;SDS011;24847;48.218;16.414;2023-08-12T09:43:14;2.35;;;2.15;;
39102;SDS011;24847;48.218;16.414;2023-08-12T09:48:18;3.15;;;2.05;;
39102;SDS011;24847;48.218;16.414;2023-08-12T09:53:21;3.03;;;1.88;;
39102;SDS011;24847;48.218;16.414;2023-08-12T09:58:24;2.30;;;1.83;;
39102;SDS011;24847;48.218;16.414;2023-08-12T10:03:30;1.55;;;1.45;;
39102;SDS011;24847;48.218;16.414;2023-08-12T10:08:35;2.58;;;1.80;;
39102;SDS011;24847;48.218;16.414;2023-08-12T10:13:39;2.47;;;1.55;;
39102;SDS011;24847;48.218;16.414;2023-08-12T10:18:43;1.67;;;1.58;;
39102;SDS011;24847;48.218;16.414;2023-08-12T10:23:49;2.58;;;1.58;;
39102;SDS011;24847;48.218;16.414;2023-08-12T10:28:52;1.90;;;1.58;;
39102;SDS011;24847;48.218;16.414;2023-08-12T10:33:57;3.00;;;1.58;;
39102;SDS011;24847;48.218;16.414;2023-08-12T10:39:00;2.22;;;1.75;;
39102;SDS011;24847;48.218;16.414;2023-08-12T10:44:04;1.65;;;1.52;;
39102;SDS011;24847;48.218;16.414;2023-08-12T10:49:09;1.83;;;1.30;;
39102;SDS011;24847;48.218;16.414;2023-08-12T10:59:47;2.67;;;1.50;;
39102;SDS011;24847;48.218;16.414;2023-08-12T11:04:56;1.50;;;1.40;;
39102;SDS011;24847;48.218;16.414;2023-08-12T11:10:09;2.30;;;1.20;;
39102;SDS011;24847;48.218;16.414;2023-08-12T11:15:13;1.52;;;1.40;;
39102;SDS011;24847;48.218;16.414;2023-08-12T11:20:17;1.30;;;1.20;;
39102;SDS011;24847;48.218;16.414;2023-08-12T11:25:19;1.50;;;1.17;;
39102;SDS011;24847;48.218;16.414;2023-08-12T11:30:22;1.50;;;1.38;;
39102;SDS011;24847;48.218;16.414;2023-08-12T11:35:26;1.83;;;1.30;;
39102;SDS011;24847;48.218;16.414;2023-08-12T11:40:29;2.05;;;1.10;;
39102;SDS011;24847;48.218;16.414;2023-08-12T11:45:31;1.00;;;0.90;;
39102;SDS011;24847;48.218;16.414;2023-08-12T11:50:35;1.25;;;1.15;;
39102;SDS011;24847;48.218;16.414;2023-08-12T11:55:38;1.23;;;1.13;;
39102;SDS011;24847;48.218;16.414;2023-08-12T12:00:40;1.75;;;1.50;;
39102;SDS011;24847;48.218;16.414;2023-08-12T12:05:45;1.15;;;1.05;;
39102;SDS011;24847;48.218;16.414;2023-08-12T12:10:48;1.65;;;1.15;;
39102;SDS011;24847;48.218;16.414;2023-08-12T12:15:51;1.50;;;1.25;;
39102;SDS011;24847;48.218;16.414;2023-08-12T12:21:00;1.15;;;1.10;;
39102;SDS011;24847;48.218;16.414;2023-08-12T12:26:02;1.40;;;1.10;;
39102;SDS011;24847;48.218;16.414;2023-08-12T12:31:05;1.83;;;1.23;;
39102;SDS011;24847;48.218;16.414;2023-08-12T12:36:09;0.98;;;0.90;;
39102;SDS011;24847;48.218;16.414;2023-08-12T12:41:13;1.20;;;1.10;;
39102;SDS011;24847;48.218;16.414;2023-08-12T12:46:15;1.20;;;1.10;;
39102;SDS011;24847;48.218;16.414;2023-08-12T12:51:19;0.98;;;0.88;;
39102;SDS011;24847;48.218;16.414;2023-08-12T12:56:21;1.58;;;1.10;;
39102;SDS011;24847;48.218;16.414;2023-08-12T13:01:24;1.00;;;0.90;;
39102;SDS011;24847;48.218;16.414;2023-08-12T13:06:27;1.02;;;0.93;;
39102;SDS011;24847;48.218;16.414;2023-08-12T13:11:31;0.95;;;0.70;;
39102;SDS011;24847;48.218;16.414;2023-08-12T13:16:35;0.98;;;0.80;;
39102;SDS011;24847;48.218;16.414;2023-08-12T13:21:39;1.02;;;0.93;;
39102;SDS011;24847;48.218;16.414;2023-08-12T13:26:41;2.22;;;1.17;;
39102;SDS011;24847;48.218;16.414;2023-08-12T13:31:44;5.85;;;5.22;;
39102;SDS011;24847;48.218;16.414;2023-08-12T13:36:47;2.05;;;1.85;;
39102;SDS011;24847;48.218;16.414;2023-08-12T13:41:50;1.20;;;1.10;;
39102;SDS011;24847;48.218;16.414;2023-08-12T13:46:52;1.05;;;1.00;;
39102;SDS011;24847;48.218;16.414;2023-08-12T13:51:55;1.45;;;0.88;;
39102;SDS011;24847;48.218;16.414;2023-08-12T13:56:59;1.30;;;0.90;;
39102;SDS011;24847;48.218;16.414;2023-08-12T14:02:02;1.70;;;0.98;;
39102;SDS011;24847;48.218;16.414;2023-08-12T14:07:06;1.50;;;1.10;;
39102;SDS011;24847;48.218;16.414;2023-08-12T14:12:09;2.35;;;1.10;;
39102;SDS011;24847;48.218;16.414;2023-08-12T14:17:11;1.25;;;0.95;;
39102;SDS011;24847;48.218;16.414;2023-08-12T14:22:16;1.65;;;1.10;;
39102;SDS011;24847;48.218;16.414;2023-08-12T14:27:18;2.40;;;1.10;;
39102;SDS011;24847;48.218;16.414;2023-08-12T14:32:20;1.13;;;0.90;;
39102;SDS011;24847;48.218;16.414;2023-08-12T14:37:24;1.17;;;0.73;;
39102;SDS011;24847;48.218;16.414;2023-08-12T14:42:27;1.50;;;0.80;;
39102;SDS011;24847;48.218;16.414;2023-08-12T14:47:30;1.38;;;0.95;;
39102;SDS011;24847;48.218;16.414;2023-08-12T14:52:34;1.02;;;0.90;;
39102;SDS011;24847;48.218;16.414;2023-08-12T14:57:36;1.10;;;0.90;;
39102;SDS011;24847;48.218;16.414;2023-08-12T15:02:38;2.17;;;1.08;;
39102;SDS011;24847;48.218;16.414;2023-08-12T15:07:42;1.10;;;1.00;;
39102;SDS011;24847;48.218;16.414;2023-08-12T15:12:44;1.33;;;1.23;;
39102;SDS011;24847;48.218;16.414;2023-08-12T15:17:46;1.35;;;1.15;;
39102;SDS011;24847;48.218;16.414;2023-08-12T15:22:50;1.10;;;1.00;;
39102;SDS011;24847;48.218;16.414;2023-08-12T15:27:52;1.33;;;0.95;;
39102;SDS011;24847;48.218;16.414;2023-08-12T15:32:54;1.90;;;0.88;;
39102;SDS011;24847;48.218;16.414;2023-08-12T15:37:58;1.38;;;1.20;;
39102;SDS011;24847;48.218;16.414;2023-08-12T15:43:01;1.75;;;1.20;;
39102;SDS011;24847;48.218;16.414;2023-08-12T15:48:05;1.23;;;0.98;;
39102;SDS011;24847;48.218;16.414;2023-08-12T15:53:09;1.10;;;1.00;;
39102;SDS011;24847;48.218;16.414;2023-08-12T15:58:11;0.90;;;0.90;;
39102;SDS011;24847;48.218;16.414;2023-08-12T16:03:16;1.60;;;1.15;;
39102;SDS011;24847;48.218;16.414;2023-08-12T16:08:21;1.10;;;1.00;;
39102;SDS011;24847;48.218;16.414;2023-08-12T16:13:27;1.63;;;0.80;;
39102;SDS011;24847;48.218;16.414;2023-08-12T16:18:29;1.02;;;0.93;;
39102;SDS011;24847;48.218;16.414;2023-08-12T16:23:33;1.13;;;1.00;;
39102;SDS011;24847;48.218;16.414;2023-08-12T16:28:35;3.08;;;1.45;;
39102;SDS011;24847;48.218;16.414;2023-08-12T16:33:37;0.80;;;0.80;;
39102;SDS011;24847;48.218;16.414;2023-08-12T16:38:41;2.28;;;1.40;;
39102;SDS011;24847;48.218;16.414;2023-08-12T16:43:44;1.33;;;1.23;;
39102;SDS011;24847;48.218;16.414;2023-08-12T16:48:47;1.25;;;1.15;;
39102;SDS011;24847;48.218;16.414;2023-08-12T16:53:50;1.52;;;1.20;;
39102;SDS011;24847;48.218;16.414;2023-08-12T16:58:52;1.15;;;1.05;;
39102;SDS011;24847;48.218;16.414;2023-08-12T17:03:55;1.27;;;1.10;;
39102;SDS011;24847;48.218;16.414;2023-08-12T17:08:58;1.55;;;1.40;;
39102;SDS011;24847;48.218;16.414;2023-08-12T17:14:01;1.40;;;1.30;;
39102;SDS011;24847;48.218;16.414;2023-08-12T17:19:05;1.52;;;1.25;;
39102;SDS011;24847;48.218;16.414;2023-08-12T17:24:09;2.05;;;1.50;;
39102;SDS011;24847;48.218;16.414;2023-08-12T17:29:12;1.65;;;1.05;;
39102;SDS011;24847;48.218;16.414;2023-08-12T17:34:14;1.35;;;1.23;;
39102;SDS011;24847;48.218;16.414;2023-08-12T17:39:17;1.52;;;1.30;;
39102;SDS011;24847;48.218;16.414;2023-08-12T17:44:20;1.52;;;1.30;;
39102;SDS011;24847;48.218;16.414;2023-08-12T17:49:23;1.88;;;1.40;;
39102;SDS011;24847;48.218;16.414;2023-08-12T17:54:26;4.68;;;1.40;;
39102;SDS011;24847;48.218;16.414;2023-08-12T17:59:30;1.30;;;1.20;;
39102;SDS011;24847;48.218;16.414;2023-08-12T18:04:32;1.60;;;1.30;;
39102;SDS011;24847;48.218;16.414;2023-08-12T18:09:36;2.00;;;1.30;;
39102;SDS011;24847;48.218;16.414;2023-08-12T18:14:38;2.67;;;1.40;;
39102;SDS011;24847;48.218;16.414;2023-08-12T18:19:40;1.55;;;1.30;;
39102;SDS011;24847;48.218;16.414;2023-08-12T18:24:44;1.80;;;1.63;;
39102;SDS011;24847;48.218;16.414;2023-08-12T18:29:47;1.65;;;1.42;;
39102;SDS011;24847;48.218;16.414;2023-08-12T18:34:52;2.45;;;1.50;;
39102;SDS011;24847;48.218;16.414;2023-08-12T18:39:57;1.88;;;1.52;;
39102;SDS011;24847;48.218;16.414;2023-08-12T18:45:00;1.65;;;1.33;;
39102;SDS011;24847;48.218;16.414;2023-08-12T18:50:03;1.80;;;1.40;;
39102;SDS011;24847;48.218;16.414;2023-08-12T18:55:09;1.92;;;1.55;;
39102;SDS011;24847;48.218;16.414;2023-08-12T19:00:12;1.50;;;1.30;;
39102;SDS011;24847;48.218;16.414;2023-08-12T19:05:15;1.25;;;1.15;;
39102;SDS011;24847;48.218;16.414;2023-08-12T19:10:19;1.58;;;1.40;;
39102;SDS011;24847;48.218;16.414;2023-08-12T19:15:22;1.77;;;1.58;;
39102;SDS011;24847;48.218;16.414;2023-08-12T19:20:24;1.50;;;1.40;;
39102;SDS011;24847;48.218;16.414;2023-08-12T19:25:28;2.55;;;1.52;;
39102;SDS011;24847;48.218;16.414;2023-08-12T19:30:31;2.17;;;1.60;;
39102;SDS011;24847;48.218;16.414;2023-08-12T19:35:34;2.53;;;1.77;;
39102;SDS011;24847;48.218;16.414;2023-08-12T19:40:39;3.70;;;1.50;;
39102;SDS011;24847;48.218;16.414;2023-08-12T19:45:43;2.08;;;1.55;;
39102;SDS011;24847;48.218;16.414;2023-08-12T19:50:48;1.92;;;1.63;;
39102;SDS011;24847;48.218;16.414;2023-08-12T19:55:55;2.40;;;1.60;;
39102;SDS011;24847;48.218;16.414;2023-08-12T20:00:58;1.77;;;1.52;;
39102;SDS011;24847;48.218;16.414;2023-08-12T20:06:01;2.05;;;1.60;;
39102;SDS011;24847;48.218;16.414;2023-08-12T20:11:05;1.67;;;1.58;;
39102;SDS011;24847;48.218;16.414;2023-08-12T20:16:10;1.85;;;1.67;;
39102;SDS011;24847;48.218;16.414;2023-08-12T20:21:13;2.53;;;1.63;;
39102;SDS011;24847;48.218;16.414;2023-08-12T20:26:17;2.00;;;1.80;;
39102;SDS011;24847;48.218;16.414;2023-08-12T20:31:22;3.30;;;3.00;;
39102;SDS011;24847;48.218;16.414;2023-08-12T20:36:26;2.65;;;2.25;;
39102;SDS011;24847;48.218;16.414;2023-08-12T20:41:30;1.60;;;1.50;;
39102;SDS011;24847;48.218;16.414;2023-08-12T20:46:33;1.83;;;1.60;;
39102;SDS011;24847;48.218;16.414;2023-08-12T20:51:35;2.47;;;1.60;;
39102;SDS011;24847;48.218;16.414;2023-08-12T20:56:40;4.75;;;3.75;;
39102;SDS011;24847;48.218;16.414;2023-08-12T21:01:43;3.90;;;3.15;;
39102;SDS011;24847;48.218;16.414;2023-08-12T21:06:46;2.63;;;2.22;;
39102;SDS011;24847;48.218;16.414;2023-08-12T21:11:50;4.18;;;1.80;;
39102;SDS011;24847;48.218;16.414;2023-08-12T21:16:53;2.30;;;1.92;;
39102;SDS011;24847;48.218;16.414;2023-08-12T21:21:55;2.67;;;1.60;;
39102;SDS011;24847;48.218;16.414;2023-08-12T21:26:59;3.17;;;1.50;;
39102;SDS011;24847;48.218;16.414;2023-08-12T21:32:01;1.55;;;1.45;;
39102;SDS011;24847;48.218;16.414;2023-08-12T21:37:03;1.67;;;1.45;;
39102;SDS011;24847;48.218;16.414;2023-08-12T21:42:07;1.60;;;1.50;;
39102;SDS011;24847;48.218;16.414;2023-08-12T21:47:09;2.63;;;2.25;;
39102;SDS011;24847;48.218;16.414;2023-08-12T21:52:12;1.88;;;1.73;;
39102;SDS011;24847;48.218;16.414;2023-08-12T21:57:15;1.77;;;1.60;;
39102;SDS011;24847;48.218;16.414;2023-08-12T22:02:24;1.75;;;1.65;;
39102;SDS011;24847;48.218;16.414;2023-08-12T22:07:27;1.55;;;1.45;;
39102;SDS011;24847;48.218;16.414;2023-08-12T22:12:31;1.55;;;1.45;;
39102;SDS011;24847;48.218;16.414;2023-08-12T22:17:33;1.67;;;1.58;;
39102;SDS011;24847;48.218;16.414;2023-08-12T22:22:36;1.95;;;1.40;;
39102;SDS011;24847;48.218;16.414;2023-08-12T22:27:40;2.08;;;1.85;;
39102;SDS011;24847;48.218;16.414;2023-08-12T22:32:42;3.15;;;2.13;;
39102;SDS011;24847;48.218;16.414;2023-08-12T22:37:45;2.25;;;2.05;;
39102;SDS011;24847;48.218;16.414;2023-08-12T22:42:48;2.10;;;1.77;;
39102;SDS011;24847;48.218;16.414;2023-08-12T22:47:51;3.05;;;1.70;;
39102;SDS011;24847;48.218;16.414;2023-08-12T22:52:53;2.10;;;1.90;;
39102;SDS011;24847;48.218;16.414;2023-08-12T22:57:57;2.00;;;1.77;;
39102;SDS011;24847;48.218;16.414;2023-08-12T23:02:59;2.35;;;2.10;;
39102;SDS011;24847;48.218;16.414;2023-08-12T23:08:01;1.95;;;1.75;;
39102;SDS011;24847;48.218;16.414;2023-08-12T23:13:05;3.15;;;2.00;;
39102;SDS011;24847;48.218;16.414;2023-08-12T23:18:07;2.20;;;2.00;;
39102;SDS011;24847;48.218;16.414;2023-08-12T23:23:09;2.20;;;2.00;;
39102;SDS011;24847;48.218;16.414;2023-08-12T23:28:13;2.05;;;1.85;;
39102;SDS011;24847;48.218;16.414;2023-08-12T23:33:16;2.08;;;1.67;;
39102;SDS011;24847;48.218;16.414;2023-08-12T23:38:18;2.70;;;1.60;;
39102;SDS011;24847;48.218;16.414;2023-08-12T23:43:22;2.00;;;1.90;;
39102;SDS011;24847;48.218;16.414;2023-08-12T23:48:24;3.53;;;1.92;;
39102;SDS011;24847;48.218;16.414;2023-08-12T23:53:26;1.95;;;1.85;;
39102;SDS011;24847;48.218;16.414;2023-08-12T23:58:30;2.00;;;1.80;;
